createdAt,value
2019-06-20T00:02:00.001Z,98097.89
2019-06-20T00:04:34.742Z,98101.32
2019-06-20T00:07:09.568Z,98102.66
2019-06-20T00:09:42.966Z,98101.39
2019-06-20T00:12:18.222Z,98089.21
2019-06-20T00:14:53.759Z,98054.75
2019-06-20T00:17:27.052Z,98045.50
2019-06-20T00:20:00.691Z,98034.54
2019-06-20T00:22:34.227Z,98041.23
2019-06-20T00:25:08.109Z,98029.91
2019-06-20T00:27:43.001Z,98021.92
2019-06-20T00:30:18.280Z,98035.41
2019-06-20T00:32:52.111Z,98027.39
2019-06-20T00:35:27.461Z,98010.55
2019-06-20T00:38:00.994Z,98021.52
2019-06-20T00:40:37.149Z,98020.59
2019-06-20T00:43:17.403Z,98021.98
2019-06-20T00:45:45.370Z,98007.98
2019-06-20T00:48:18.931Z,98001.47
2019-06-20T00:50:54.317Z,98007.98
2019-06-20T00:53:29.624Z,98024.89
2019-06-20T00:56:03.042Z,98024.19
2019-06-20T00:58:37.753Z,98022.63
2019-06-20T01:01:11.493Z,98027.55
2019-06-20T01:03:47.301Z,98040.37
2019-06-20T01:06:20.902Z,98040.67
2019-06-20T01:08:55.821Z,98044.64
2019-06-20T01:11:29.530Z,98062.00
2019-06-20T01:14:04.162Z,98050.46
2019-06-20T01:16:37.511Z,98058.05
2019-06-20T01:19:11.475Z,98052.92
2019-06-20T01:21:44.959Z,98045.62
2019-06-20T01:24:18.456Z,98037.38
2019-06-20T01:26:53.711Z,98034.66
2019-06-20T01:29:27.238Z,98035.45
2019-06-20T01:32:01.868Z,98033.64
2019-06-20T01:34:35.296Z,98024.78
2019-06-20T01:37:09.154Z,98018.94
2019-06-20T01:39:42.848Z,98021.02
2019-06-20T01:42:16.647Z,98005.14
2019-06-20T01:44:52.131Z,97991.80
2019-06-20T01:47:27.072Z,97975.35
2019-06-20T01:50:02.570Z,97951.28
2019-06-20T01:52:37.922Z,97944.16
2019-06-20T01:55:11.592Z,97944.04
2019-06-20T01:57:45.437Z,97939.92
2019-06-20T02:00:30.438Z,97934.44
2019-06-20T02:03:04.094Z,97933.64
2019-06-20T02:05:38.979Z,97932.34
2019-06-20T02:08:13.897Z,97925.27
2019-06-20T02:10:48.923Z,97927.55
2019-06-20T02:13:24.319Z,97928.30
2019-06-20T02:15:57.913Z,97940.00
2019-06-20T02:18:32.701Z,97945.81
2019-06-20T02:21:08.719Z,97955.86
2019-06-20T02:23:43.955Z,97959.41
2019-06-20T02:26:17.569Z,97961.35
2019-06-20T02:28:51.299Z,97954.96
2019-06-20T02:31:24.789Z,97957.64
2019-06-20T02:33:59.772Z,97966.22
2019-06-20T02:36:35.386Z,97968.62
2019-06-20T02:39:10.119Z,97973.75
2019-06-20T02:41:43.921Z,97993.57
2019-06-20T02:44:29.880Z,98006.98
2019-06-20T02:46:54.919Z,98025.05
2019-06-20T02:49:29.981Z,98040.91
2019-06-20T02:52:05.937Z,98052.70
2019-06-20T02:54:40.812Z,98051.63
2019-06-20T02:57:15.750Z,98067.23
2019-06-20T02:59:50.486Z,98077.78
2019-06-20T03:02:25.386Z,98082.80
2019-06-20T03:05:00.125Z,98075.38
2019-06-20T03:07:33.509Z,98079.48
2019-06-20T03:10:09.745Z,98072.28
2019-06-20T03:12:43.265Z,98066.05
2019-06-20T03:15:16.994Z,98071.95
2019-06-20T03:17:50.524Z,98072.12
2019-06-20T03:20:24.030Z,98071.67
2019-06-20T03:22:57.416Z,98071.25
2019-06-20T03:25:31.045Z,98076.05
2019-06-20T03:28:05.043Z,98073.47
2019-06-20T03:30:38.653Z,98075.70
2019-06-20T03:33:13.635Z,98068.30
2019-06-20T03:35:47.129Z,98071.16
2019-06-20T03:38:22.012Z,98065.52
2019-06-20T03:40:55.508Z,98075.93
2019-06-20T03:43:30.514Z,98069.98
2019-06-20T03:46:04.969Z,98061.72
2019-06-20T03:48:38.409Z,98062.91
2019-06-20T03:51:11.883Z,98061.27
2019-06-20T03:53:46.976Z,98068.09
2019-06-20T03:56:20.480Z,98065.52
2019-06-20T03:58:55.167Z,98063.22
2019-06-20T04:01:29.854Z,98061.29
2019-06-20T04:04:03.287Z,98065.48
2019-06-20T04:06:38.402Z,98076.06
2019-06-20T04:09:13.373Z,98078.45
2019-06-20T04:11:46.727Z,98072.03
2019-06-20T04:14:20.202Z,98064.45
2019-06-20T04:17:02.626Z,98061.08
2019-06-20T04:19:35.908Z,98064.23
2019-06-20T04:22:10.739Z,98062.63
2019-06-20T04:24:45.680Z,98065.67
2019-06-20T04:27:18.979Z,98067.25
2019-06-20T04:29:54.225Z,98070.83
2019-06-20T04:32:29.655Z,98077.06
2019-06-20T04:35:03.038Z,98077.66
2019-06-20T04:37:36.310Z,98075.86
2019-06-20T04:40:11.092Z,98068.66
2019-06-20T04:42:46.187Z,98077.44
2019-06-20T04:45:34.151Z,98081.41
2019-06-20T04:47:55.855Z,98075.67
2019-06-20T04:50:29.384Z,98079.10
2019-06-20T04:53:04.379Z,98073.94
2019-06-20T04:55:37.756Z,98073.36
2019-06-20T04:58:11.212Z,98074.45
2019-06-20T05:00:45.091Z,98072.48
2019-06-20T05:03:18.821Z,98074.08
2019-06-20T05:05:54.001Z,98067.89
2019-06-20T05:08:29.298Z,98061.01
2019-06-20T05:11:04.175Z,98069.18
2019-06-20T05:13:37.566Z,98058.98
2019-06-20T05:16:11.101Z,98068.48
2019-06-20T05:18:44.646Z,98061.39
2019-06-20T05:21:22.277Z,98070.38
2019-06-20T05:23:55.641Z,98067.83
2019-06-20T05:26:30.322Z,98061.51
2019-06-20T05:29:05.506Z,98067.66
2019-06-20T05:31:39.870Z,98069.07
2019-06-20T05:34:13.191Z,98064.35
2019-06-20T05:36:47.052Z,98053.93
2019-06-20T05:39:21.969Z,98062.25
2019-06-20T05:41:55.307Z,98071.58
2019-06-20T05:44:30.179Z,98065.14
2019-06-20T05:47:12.592Z,98055.77
2019-06-20T05:49:39.206Z,98051.88
2019-06-20T05:52:20.508Z,98048.88
2019-06-20T05:54:56.756Z,98050.67
2019-06-20T05:57:33.780Z,98038.02
2019-06-20T06:00:08.346Z,98038.28
2019-06-20T06:02:42.064Z,98037.98
2019-06-20T06:05:19.340Z,98036.10
2019-06-20T06:07:54.232Z,98033.11
2019-06-20T06:10:29.468Z,98027.23
2019-06-20T06:13:03.068Z,98029.21
2019-06-20T06:15:37.870Z,98024.01
2019-06-20T06:18:15.247Z,98024.91
2019-06-20T06:20:50.060Z,98028.31
2019-06-20T06:23:26.074Z,98022.80
2019-06-20T06:26:00.329Z,98024.61
2019-06-20T06:28:35.508Z,98022.34
2019-06-20T06:31:10.619Z,98025.63
2019-06-20T06:33:45.610Z,98023.74
2019-06-20T06:36:22.550Z,98025.14
2019-06-20T06:38:58.921Z,98030.34
2019-06-20T06:41:32.870Z,98024.78
2019-06-20T06:44:08.472Z,98030.58
2019-06-20T06:46:47.138Z,98030.67
2019-06-20T06:49:16.791Z,98036.64
2019-06-20T06:51:50.184Z,98033.38
2019-06-20T06:54:26.505Z,98038.80
2019-06-20T06:57:01.242Z,98037.84
2019-06-20T06:59:34.900Z,98041.95
2019-06-20T07:02:10.198Z,98039.10
2019-06-20T07:04:43.609Z,98049.93
2019-06-20T07:07:17.279Z,98045.28
2019-06-20T07:09:51.754Z,98049.70
2019-06-20T07:12:26.737Z,98055.64
2019-06-20T07:15:01.608Z,98061.72
2019-06-20T07:17:35.132Z,98059.25
2019-06-20T07:20:14.918Z,98054.09
2019-06-20T07:22:46.026Z,98059.80
2019-06-20T07:25:21.782Z,98062.20
2019-06-20T07:27:55.253Z,98063.51
2019-06-20T07:30:29.010Z,98056.59
2019-06-20T07:33:02.680Z,98057.70
2019-06-20T07:35:41.635Z,98058.21
2019-06-20T07:38:14.165Z,98053.73
2019-06-20T07:40:49.545Z,98048.98
2019-06-20T07:43:23.004Z,98052.72
2019-06-20T07:46:02.606Z,98051.62
2019-06-20T07:48:32.977Z,98054.22
2019-06-20T07:51:08.068Z,98058.22
2019-06-20T07:53:42.540Z,98058.61
2019-06-20T07:56:16.089Z,98050.58
2019-06-20T07:58:51.454Z,98056.89
2019-06-20T08:01:25.244Z,98055.73
2019-06-20T08:04:00.332Z,98049.14
2019-06-20T08:06:33.690Z,98044.56
2019-06-20T08:09:08.961Z,98035.08
2019-06-20T08:11:42.261Z,98035.08
2019-06-20T08:14:15.773Z,98045.27
2019-06-20T08:16:50.659Z,98044.48
2019-06-20T08:19:24.089Z,98044.06
2019-06-20T08:21:57.573Z,98050.06
2019-06-20T08:24:33.045Z,98046.45
2019-06-20T08:27:06.869Z,98047.91
2019-06-20T08:29:41.675Z,98054.77
2019-06-20T08:32:16.021Z,98045.19
2019-06-20T08:34:49.544Z,98048.44
2019-06-20T08:37:24.288Z,98056.02
2019-06-20T08:39:59.935Z,98054.52
2019-06-20T08:42:36.108Z,98052.47
2019-06-20T08:45:13.398Z,98055.78
2019-06-20T08:47:47.156Z,98051.92
2019-06-20T08:52:58.529Z,98043.15
2019-06-20T08:55:34.547Z,98043.15
2019-06-20T08:58:31.890Z,98056.06
2019-06-20T09:03:40.740Z,98065.25
2019-06-20T09:06:15.115Z,98065.25
2019-06-20T09:08:50.569Z,98058.29
2019-06-20T09:11:24.733Z,98068.18
2019-06-20T09:14:04.035Z,98062.41
2019-06-20T09:16:38.409Z,98069.39
2019-06-20T09:19:14.335Z,98064.20
2019-06-20T09:21:48.503Z,98073.89
2019-06-20T09:24:24.441Z,98079.33
2019-06-20T09:26:59.368Z,98074.98
2019-06-20T09:29:41.562Z,98078.33
2019-06-20T09:32:11.081Z,98078.86
2019-06-20T09:34:45.747Z,98082.10
2019-06-20T09:37:20.210Z,98085.20
2019-06-20T09:39:57.226Z,98085.09
2019-06-20T09:42:31.834Z,98086.54
2019-06-20T09:45:06.711Z,98095.59
2019-06-20T09:47:42.659Z,98095.05
2019-06-20T09:50:17.774Z,98091.63
2019-06-20T09:52:53.171Z,98098.61
2019-06-20T09:55:30.232Z,98091.00
2019-06-20T09:58:04.807Z,98101.73
2019-06-20T10:00:40.134Z,98100.61
2019-06-20T10:03:33.768Z,98108.45
2019-06-20T10:06:14.087Z,98106.27
2019-06-20T10:08:46.622Z,98101.86
2019-06-20T10:11:19.509Z,98114.49
2019-06-20T10:13:56.050Z,98107.73
2019-06-20T10:16:44.967Z,98103.32
2019-06-20T10:19:07.333Z,98106.33
2019-06-20T10:21:42.810Z,98108.52
2019-06-20T10:24:16.888Z,98112.52
2019-06-20T10:26:51.512Z,98124.27
2019-06-20T10:29:25.465Z,98121.09
2019-06-20T10:32:00.667Z,98124.28
2019-06-20T10:34:36.506Z,98127.70
2019-06-20T10:37:10.941Z,98131.66
2019-06-20T10:39:47.738Z,98129.67
2019-06-20T10:42:22.170Z,98136.45
2019-06-20T10:44:57.921Z,98138.83
2019-06-20T10:47:36.041Z,98148.39
2019-06-20T10:50:12.581Z,98148.42
2019-06-20T10:52:47.872Z,98152.79
2019-06-20T10:55:22.933Z,98158.17
2019-06-20T10:57:56.990Z,98171.52
2019-06-20T11:00:32.614Z,98170.45
2019-06-20T11:03:06.961Z,98180.08
2019-06-20T11:05:45.546Z,98176.08
2019-06-20T11:08:19.565Z,98185.78
2019-06-20T11:10:54.850Z,98187.58
2019-06-20T11:13:28.846Z,98191.48
2019-06-20T11:16:02.821Z,98192.30
2019-06-20T11:18:38.853Z,98187.91
2019-06-20T11:21:13.258Z,98199.46
2019-06-20T11:23:49.204Z,98194.87
2019-06-20T11:26:24.892Z,98196.27
2019-06-20T11:29:01.356Z,98199.97
2019-06-20T11:31:37.649Z,98200.17
2019-06-20T11:34:12.535Z,98213.59
2019-06-20T11:36:50.427Z,98213.59
2019-06-20T11:39:26.280Z,98211.76
2019-06-20T11:42:01.491Z,98218.48
2019-06-20T11:44:36.939Z,98217.89
2019-06-20T11:47:10.668Z,98227.11
2019-06-20T11:49:46.980Z,98232.13
2019-06-20T11:52:21.216Z,98231.71
2019-06-20T11:58:06.473Z,98253.77
2019-06-20T12:03:27.713Z,98248.92
2019-06-20T12:06:02.024Z,98246.73
2019-06-20T12:08:35.908Z,98263.27
2019-06-20T12:11:11.451Z,98262.22
2019-06-20T12:13:46.418Z,98265.16
2019-06-20T12:16:22.098Z,98268.46
2019-06-20T12:18:57.706Z,98270.63
2019-06-20T12:21:32.373Z,98275.22
2019-06-20T12:24:08.654Z,98275.60
2019-06-20T12:26:46.750Z,98287.48
2019-06-20T12:29:20.370Z,98286.92
2019-06-20T12:32:16.138Z,98288.73
2019-06-20T12:34:51.986Z,98293.70
2019-06-20T12:37:26.424Z,98293.70
2019-06-20T12:40:03.375Z,98294.15
2019-06-20T12:42:39.325Z,98297.90
2019-06-20T12:45:17.302Z,98304.28
2019-06-20T12:47:52.177Z,98300.37
2019-06-20T12:50:26.281Z,98311.09
2019-06-20T12:53:00.030Z,98306.17
2019-06-20T12:55:35.721Z,98311.36
2019-06-20T12:58:09.370Z,98311.03
2019-06-20T13:00:45.361Z,98313.02
2019-06-20T13:03:30.461Z,98317.54
2019-06-20T13:06:04.340Z,98315.77
2019-06-20T13:08:39.010Z,98318.89
2019-06-20T13:11:13.078Z,98324.27
2019-06-20T13:13:49.182Z,98326.77
2019-06-20T13:16:23.109Z,98330.66
2019-06-20T13:18:56.982Z,98330.55
2019-06-20T13:21:30.734Z,98327.16
2019-06-20T13:24:10.850Z,98331.33
2019-06-20T13:26:43.893Z,98338.70
2019-06-20T13:29:17.984Z,98340.01
2019-06-20T13:32:03.479Z,98334.48
2019-06-20T13:34:29.241Z,98338.71
2019-06-20T13:37:04.747Z,98339.85
2019-06-20T13:39:40.044Z,98343.51
2019-06-20T13:42:15.542Z,98342.45
2019-06-20T13:44:49.767Z,98343.66
2019-06-20T13:47:23.886Z,98346.67
2019-06-20T13:49:58.756Z,98350.94
2019-06-20T13:52:34.472Z,98350.84
2019-06-20T13:55:11.357Z,98360.00
2019-06-20T13:57:47.210Z,98361.37
2019-06-20T14:00:26.043Z,98362.49
2019-06-20T14:03:01.275Z,98367.81
2019-06-20T14:05:35.018Z,98368.61
2019-06-20T14:08:08.598Z,98366.38
2019-06-20T14:10:44.075Z,98367.30
2019-06-20T14:13:19.524Z,98369.27
2019-06-20T14:15:53.739Z,98378.29
2019-06-20T14:18:28.380Z,98379.34
2019-06-20T14:21:03.758Z,98377.37
2019-06-20T14:23:37.969Z,98381.46
2019-06-20T14:26:12.492Z,98382.12
2019-06-20T14:28:48.284Z,98387.39
2019-06-20T14:34:01.969Z,98391.65
2019-06-20T14:36:36.017Z,98390.89
2019-06-20T14:39:11.158Z,98393.93
2019-06-20T14:41:46.348Z,98398.42
2019-06-20T14:44:22.066Z,98396.41
2019-06-20T14:46:57.187Z,98401.95
2019-06-20T14:49:52.556Z,98402.94
2019-06-20T14:52:26.749Z,98400.66
2019-06-20T14:55:01.961Z,98398.75
2019-06-20T14:57:35.731Z,98392.78
2019-06-20T15:00:14.044Z,98390.62
2019-06-20T15:02:53.138Z,98389.64
2019-06-20T15:05:26.819Z,98393.27
2019-06-20T15:08:02.209Z,98393.84
2019-06-20T15:10:36.063Z,98391.67
2019-06-20T15:13:10.136Z,98386.66
2019-06-20T15:15:46.468Z,98382.30
2019-06-20T15:18:21.034Z,98382.88
2019-06-20T15:20:59.384Z,98380.59
2019-06-20T15:23:33.838Z,98371.20
2019-06-20T15:26:11.364Z,98378.02
2019-06-20T15:28:47.974Z,98379.91
2019-06-20T15:31:25.572Z,98382.36
2019-06-20T15:34:02.398Z,98379.44
2019-06-20T15:36:36.500Z,98385.26
2019-06-20T15:39:11.168Z,98383.61
2019-06-20T15:41:48.171Z,98383.39
2019-06-20T15:44:21.719Z,98376.05
2019-06-20T15:46:56.928Z,98382.29
2019-06-20T15:49:32.282Z,98386.03
2019-06-20T15:52:07.721Z,98380.91
2019-06-20T15:54:41.638Z,98381.19
2019-06-20T15:57:17.003Z,98376.44
2019-06-20T15:59:50.528Z,98374.27
2019-06-20T16:02:26.943Z,98378.77
2019-06-20T16:05:02.387Z,98386.66
2019-06-20T16:07:37.784Z,98380.81
2019-06-20T16:10:12.444Z,98385.31
2019-06-20T16:12:46.228Z,98383.31
2019-06-20T16:15:25.809Z,98383.14
2019-06-20T16:18:00.798Z,98382.69
2019-06-20T16:20:34.992Z,98383.52
2019-06-20T16:23:08.931Z,98382.52
2019-06-20T16:25:42.753Z,98385.46
2019-06-20T16:28:18.447Z,98392.17
2019-06-20T16:31:07.968Z,98392.26
2019-06-20T16:33:28.768Z,98393.18
2019-06-20T16:36:05.302Z,98392.98
2019-06-20T16:38:39.118Z,98392.60
2019-06-20T16:41:12.906Z,98393.29
2019-06-20T16:43:47.327Z,98392.60
2019-06-20T16:46:22.547Z,98394.94
2019-06-20T16:48:57.538Z,98402.62
2019-06-20T16:51:32.505Z,98408.72
2019-06-20T16:54:27.156Z,98402.70
2019-06-20T16:57:00.840Z,98407.97
2019-06-20T16:59:35.712Z,98407.66
2019-06-20T17:02:09.561Z,98412.70
2019-06-20T17:04:43.435Z,98410.20
2019-06-20T17:07:18.512Z,98408.05
2019-06-20T17:09:52.393Z,98400.63
2019-06-20T17:12:27.931Z,98407.28
2019-06-20T17:15:01.503Z,98400.83
2019-06-20T17:17:36.682Z,98398.61
2019-06-20T17:20:11.670Z,98400.95
2019-06-20T17:22:47.745Z,98404.28
2019-06-20T17:25:23.098Z,98405.31
2019-06-20T17:27:58.522Z,98408.66
2019-06-20T17:30:33.632Z,98410.03
2019-06-20T17:33:09.851Z,98401.46
2019-06-20T17:35:43.535Z,98407.33
2019-06-20T17:38:18.584Z,98405.36
2019-06-20T17:40:52.475Z,98405.82
2019-06-20T17:43:29.924Z,98408.81
2019-06-20T17:46:04.252Z,98406.55
2019-06-20T17:48:38.124Z,98408.13
2019-06-20T17:51:11.820Z,98413.74
2019-06-20T17:53:49.620Z,98411.22
2019-06-20T17:56:23.790Z,98408.94
2019-06-20T17:59:01.438Z,98412.62
2019-06-20T18:01:36.628Z,98410.45
2019-06-20T18:04:13.997Z,98407.13
2019-06-20T18:06:47.948Z,98413.21
2019-06-20T18:09:21.481Z,98409.98
2019-06-20T18:11:56.803Z,98414.02
2019-06-20T18:14:33.872Z,98411.26
2019-06-20T18:17:06.929Z,98407.72
2019-06-20T18:19:40.754Z,98407.02
2019-06-20T18:22:18.395Z,98413.22
2019-06-20T18:24:53.457Z,98415.39
2019-06-20T18:27:30.054Z,98416.09
2019-06-20T18:30:06.605Z,98415.19
2019-06-20T18:32:40.309Z,98422.66
2019-06-20T18:35:15.015Z,98419.20
2019-06-20T18:37:50.444Z,98425.63
2019-06-20T18:40:25.880Z,98418.63
2019-06-20T18:43:00.844Z,98419.53
2019-06-20T18:45:37.380Z,98421.48
2019-06-20T18:48:11.516Z,98416.45
2019-06-20T18:50:46.957Z,98431.03
2019-06-20T18:53:22.224Z,98419.20
2019-06-20T18:55:56.156Z,98424.34
2019-06-20T18:58:31.390Z,98431.59
2019-06-20T19:01:06.385Z,98420.20
2019-06-20T19:03:41.608Z,98429.84
2019-06-20T19:06:35.054Z,98423.89
2019-06-20T19:08:56.837Z,98431.47
2019-06-20T19:11:30.642Z,98429.28
2019-06-20T19:14:05.726Z,98433.88
2019-06-20T19:16:39.717Z,98443.75
2019-06-20T19:19:14.736Z,98442.94
2019-06-20T19:21:50.283Z,98440.77
2019-06-20T19:24:25.518Z,98435.02
2019-06-20T19:27:00.688Z,98446.91
2019-06-20T19:29:35.754Z,98441.48
2019-06-20T19:32:11.042Z,98446.39
2019-06-20T19:34:52.645Z,98438.70
2019-06-20T19:37:19.689Z,98445.70
2019-06-20T19:39:53.325Z,98439.84
2019-06-20T19:42:27.830Z,98450.97
2019-06-20T19:45:03.145Z,98449.27
2019-06-20T19:47:38.337Z,98453.52
2019-06-20T19:50:13.171Z,98454.33
2019-06-20T19:52:48.179Z,98454.31
2019-06-20T19:55:22.210Z,98460.48
2019-06-20T19:57:55.944Z,98465.55
2019-06-20T20:00:29.579Z,98466.09
2019-06-20T20:03:03.709Z,98470.13
2019-06-20T20:05:37.751Z,98481.94
2019-06-20T20:08:12.949Z,98477.66
2019-06-20T20:10:55.930Z,98478.31
2019-06-20T20:13:29.578Z,98478.29
2019-06-20T20:16:06.555Z,98478.20
2019-06-20T20:18:40.880Z,98488.46
2019-06-20T20:21:18.997Z,98490.23
2019-06-20T20:23:52.651Z,98490.73
2019-06-20T20:26:28.534Z,98490.77
2019-06-20T20:29:02.490Z,98494.27
2019-06-20T20:31:36.138Z,98498.84
2019-06-20T20:34:14.047Z,98500.72
2019-06-20T20:36:49.131Z,98502.26
2019-06-20T20:39:23.967Z,98505.25
2019-06-20T20:41:57.919Z,98510.03
2019-06-20T20:44:33.455Z,98509.08
2019-06-20T20:47:11.844Z,98511.20
2019-06-20T20:49:46.001Z,98515.52
2019-06-20T20:52:39.858Z,98519.05
2019-06-20T20:55:19.689Z,98519.41
2019-06-20T20:57:53.668Z,98533.20
2019-06-20T21:00:35.286Z,98531.23
2019-06-20T21:03:09.312Z,98535.52
2019-06-20T21:05:51.494Z,98535.12
2019-06-20T21:08:17.793Z,98535.52
2019-06-20T21:10:53.301Z,98534.70
2019-06-20T21:13:27.691Z,98543.23
2019-06-20T21:16:01.540Z,98538.59
2019-06-20T21:18:36.555Z,98541.05
2019-06-20T21:21:11.706Z,98544.31
2019-06-20T21:23:47.693Z,98543.98
2019-06-20T21:26:21.769Z,98544.13
2019-06-20T21:28:57.171Z,98548.30
2019-06-20T21:31:32.602Z,98553.63
2019-06-20T21:34:06.356Z,98551.63
2019-06-20T21:36:42.217Z,98554.30
2019-06-20T21:39:17.592Z,98551.31
2019-06-20T21:41:52.746Z,98553.84
2019-06-20T21:44:26.568Z,98552.94
2019-06-20T21:47:04.882Z,98556.60
2019-06-20T21:49:42.050Z,98551.70
2019-06-20T21:52:19.579Z,98560.44
2019-06-20T21:54:53.407Z,98553.44
2019-06-20T21:57:29.002Z,98567.24
2019-06-20T22:00:03.620Z,98568.19
2019-06-20T22:02:37.667Z,98568.05
2019-06-20T22:05:17.800Z,98570.25
2019-06-20T22:07:51.615Z,98571.76
2019-06-20T22:10:25.514Z,98562.93
2019-06-20T22:13:10.164Z,98561.89
2019-06-20T22:15:43.896Z,98566.23
2019-06-20T22:18:20.181Z,98566.47
2019-06-20T22:20:55.163Z,98574.38
2019-06-20T22:23:32.383Z,98577.39
2019-06-20T22:26:06.133Z,98571.26
2019-06-20T22:28:45.514Z,98580.56
2019-06-20T22:31:21.480Z,98580.56
2019-06-20T22:33:55.186Z,98578.17
2019-06-20T22:36:39.662Z,98577.36
2019-06-20T22:39:05.640Z,98573.38
2019-06-20T22:41:39.217Z,98575.31
2019-06-20T22:44:14.397Z,98573.80
2019-06-20T22:46:51.235Z,98577.17
2019-06-20T22:49:26.320Z,98581.47
2019-06-20T22:52:05.624Z,98576.02
2019-06-20T22:54:40.060Z,98573.78
2019-06-20T22:57:16.015Z,98576.72
2019-06-20T22:59:53.895Z,98569.06
2019-06-20T23:02:29.095Z,98573.55
2019-06-20T23:05:07.092Z,98569.95
2019-06-20T23:07:40.894Z,98566.31
2019-06-20T23:10:15.176Z,98579.97
2019-06-20T23:12:48.929Z,98574.78
2019-06-20T23:15:24.541Z,98585.98
2019-06-20T23:17:58.270Z,98585.89
2019-06-20T23:20:32.075Z,98588.07
2019-06-20T23:23:07.680Z,98587.98
2019-06-20T23:25:43.574Z,98592.91
2019-06-20T23:28:18.345Z,98597.67
2019-06-20T23:31:10.378Z,98590.58
2019-06-20T23:34:00.121Z,98589.55
2019-06-20T23:36:35.525Z,98588.08
2019-06-20T23:39:10.792Z,98585.67
2019-06-20T23:44:25.567Z,98583.52
2019-06-20T23:46:59.768Z,98583.17
2019-06-20T23:49:35.078Z,98571.56
2019-06-20T23:52:13.707Z,98575.11
2019-06-20T23:54:47.862Z,98574.25
2019-06-20T23:57:23.490Z,98582.94
2019-06-20T23:59:57.652Z,98585.09
